createdAt,value
2019-02-27T00:00:06.468Z,98812.89
2019-02-27T00:02:33.110Z,98817.39
2019-02-27T00:04:59.721Z,98812.17
2019-02-27T00:07:26.240Z,98818.84
2019-02-27T00:09:52.812Z,98817.11
2019-02-27T00:12:20.023Z,98811.41
2019-02-27T00:14:47.013Z,98803.47
2019-02-27T00:17:15.113Z,98792.96
2019-02-27T00:19:42.051Z,98786.66
2019-02-27T00:22:08.831Z,98778.48
2019-02-27T00:24:35.340Z,98789.49
2019-02-27T00:27:01.966Z,98789.03
2019-02-27T00:29:28.981Z,98780.20
2019-02-27T00:31:56.023Z,98772.84
2019-02-27T00:34:22.541Z,98771.72
2019-02-27T00:36:49.164Z,98768.78
2019-02-27T00:39:15.832Z,98759.47
2019-02-27T00:41:43.110Z,98757.36
2019-02-27T00:44:11.146Z,98758.63
2019-02-27T00:46:38.037Z,98763.08
2019-02-27T00:49:04.568Z,98762.59
2019-02-27T00:51:31.370Z,98761.42
2019-02-27T00:53:58.450Z,98762.36
2019-02-27T00:56:25.751Z,98772.59
2019-02-27T00:58:52.279Z,98771.02
2019-02-27T01:01:19.028Z,98770.92
2019-02-27T01:03:45.653Z,98772.51
2019-02-27T01:06:14.680Z,98764.17
2019-02-27T01:08:40.965Z,98773.11
2019-02-27T01:11:07.493Z,98769.52
2019-02-27T01:13:34.132Z,98767.36
2019-02-27T01:16:00.800Z,98762.64
2019-02-27T01:18:30.382Z,98764.02
2019-02-27T01:20:55.781Z,98759.69
2019-02-27T01:23:22.339Z,98760.52
2019-02-27T01:25:48.951Z,98754.67
2019-02-27T01:28:15.583Z,98749.61
2019-02-27T01:30:42.216Z,98753.14
2019-02-27T01:33:08.873Z,98751.59
2019-02-27T01:35:35.498Z,98758.22
2019-02-27T01:38:05.070Z,98750.56
2019-02-27T01:40:30.529Z,98748.95
2019-02-27T01:42:57.085Z,98743.33
2019-02-27T01:45:23.600Z,98742.80
2019-02-27T01:47:50.152Z,98740.56
2019-02-27T01:50:27.919Z,98744.19
2019-02-27T01:52:54.612Z,98743.58
2019-02-27T01:55:22.432Z,98746.58
2019-02-27T01:57:49.265Z,98741.52
2019-02-27T02:00:15.896Z,98735.66
2019-02-27T02:02:42.522Z,98735.34
2019-02-27T02:05:09.141Z,98732.66
2019-02-27T02:07:39.903Z,98728.21
2019-02-27T02:10:04.667Z,98725.55
2019-02-27T02:12:31.871Z,98729.48
2019-02-27T02:15:31.588Z,98725.86
2019-02-27T02:18:49.062Z,98722.95
2019-02-27T02:21:53.151Z,98720.27
2019-02-27T02:24:46.348Z,98719.98
2019-02-27T02:27:57.621Z,98725.45
2019-02-27T02:31:15.688Z,98718.50
2019-02-27T02:34:40.857Z,98714.90
2019-02-27T02:37:49.097Z,98716.62
2019-02-27T02:41:00.662Z,98704.84
2019-02-27T02:44:05.022Z,98702.25
2019-02-27T02:47:06.117Z,98698.00
2019-02-27T02:49:58.640Z,98697.81
2019-02-27T02:52:49.665Z,98689.94
2019-02-27T02:55:49.005Z,98696.73
2019-02-27T02:58:32.511Z,98691.14
2019-02-27T03:01:24.031Z,98694.45
2019-02-27T03:04:31.413Z,98694.72
2019-02-27T03:07:17.191Z,98692.95
2019-02-27T03:10:43.954Z,98693.55
2019-02-27T03:13:48.630Z,98696.02
2019-02-27T03:16:47.707Z,98689.60
2019-02-27T03:19:53.327Z,98698.05
2019-02-27T03:22:53.543Z,98688.54
2019-02-27T03:25:59.387Z,98687.48
2019-02-27T03:28:54.756Z,98684.76
2019-02-27T03:31:44.639Z,98690.83
2019-02-27T03:34:34.130Z,98694.45
2019-02-27T03:37:38.175Z,98697.20
2019-02-27T03:40:32.311Z,98687.39
2019-02-27T03:43:46.102Z,98687.86
2019-02-27T03:46:41.990Z,98690.10
2019-02-27T03:49:40.673Z,98701.21
2019-02-27T03:52:44.373Z,98696.34
2019-02-27T03:55:38.033Z,98694.38
2019-02-27T03:58:31.774Z,98699.80
2019-02-27T04:01:30.510Z,98703.58
2019-02-27T04:04:50.215Z,98705.30
2019-02-27T04:07:31.835Z,98711.56
2019-02-27T04:09:57.823Z,98702.16
2019-02-27T04:12:24.511Z,98698.72
2019-02-27T04:14:51.168Z,98693.56
2019-02-27T04:17:26.309Z,98694.91
2019-02-27T04:19:52.957Z,98699.05
2019-02-27T04:22:19.527Z,98692.66
2019-02-27T04:24:46.253Z,98692.47
2019-02-27T04:27:12.855Z,98690.64
2019-02-27T04:29:41.235Z,98693.83
2019-02-27T04:32:09.541Z,98695.27
2019-02-27T04:34:36.897Z,98694.00
2019-02-27T04:37:03.551Z,98689.55
2019-02-27T04:39:30.445Z,98698.80
2019-02-27T04:41:57.101Z,98700.52
2019-02-27T04:44:23.750Z,98694.02
2019-02-27T04:46:54.812Z,98695.93
2019-02-27T04:49:18.995Z,98696.44
2019-02-27T04:51:48.134Z,98696.95
2019-02-27T04:54:14.588Z,98697.97
2019-02-27T04:56:41.258Z,98695.20
2019-02-27T04:59:07.823Z,98691.89
2019-02-27T05:01:36.632Z,98695.65
2019-02-27T05:04:03.249Z,98696.55
2019-02-27T05:06:30.044Z,98692.59
2019-02-27T05:08:59.695Z,98688.83
2019-02-27T05:11:26.982Z,98694.25
2019-02-27T05:13:54.248Z,98698.98
2019-02-27T05:16:21.605Z,98699.69
2019-02-27T05:18:48.402Z,98699.23
2019-02-27T05:21:18.929Z,98699.94
2019-02-27T05:23:43.800Z,98704.33
2019-02-27T05:26:10.584Z,98706.75
2019-02-27T05:28:37.263Z,98703.11
2019-02-27T05:31:03.895Z,98707.31
2019-02-27T05:33:35.676Z,98709.34
2019-02-27T05:35:59.469Z,98714.28
2019-02-27T05:38:26.128Z,98716.81
2019-02-27T05:40:52.876Z,98720.52
2019-02-27T05:43:19.434Z,98719.87
2019-02-27T05:45:46.108Z,98724.06
2019-02-27T05:48:12.774Z,98723.75
2019-02-27T05:50:39.436Z,98723.75
2019-02-27T05:53:06.262Z,98724.77
2019-02-27T05:55:32.840Z,98722.59
2019-02-27T05:57:59.497Z,98726.16
2019-02-27T06:00:26.231Z,98730.54
2019-02-27T06:02:52.998Z,98729.07
2019-02-27T06:05:19.826Z,98728.94
2019-02-27T06:07:46.500Z,98734.47
2019-02-27T06:10:13.590Z,98736.13
2019-02-27T06:12:40.973Z,98729.44
2019-02-27T06:15:10.575Z,98724.23
2019-02-27T06:17:43.401Z,98725.75
2019-02-27T06:20:08.013Z,98724.17
2019-02-27T06:22:34.917Z,98718.27
2019-02-27T06:25:01.744Z,98719.55
2019-02-27T06:27:28.503Z,98726.05
2019-02-27T06:29:57.038Z,98728.98
2019-02-27T06:32:23.740Z,98727.00
2019-02-27T06:34:50.289Z,98726.50
2019-02-27T06:37:16.838Z,98728.84
2019-02-27T06:39:43.617Z,98733.83
2019-02-27T06:42:10.234Z,98728.50
2019-02-27T06:44:39.238Z,98729.26
2019-02-27T06:47:07.142Z,98724.81
2019-02-27T06:49:33.860Z,98730.79
2019-02-27T06:52:00.440Z,98729.32
2019-02-27T06:54:26.992Z,98736.40
2019-02-27T06:56:53.644Z,98730.09
2019-02-27T06:59:24.803Z,98731.08
2019-02-27T07:01:48.962Z,98728.36
2019-02-27T07:04:15.618Z,98731.39
2019-02-27T07:06:42.386Z,98732.16
2019-02-27T07:09:11.323Z,98734.14
2019-02-27T07:11:37.608Z,98721.39
2019-02-27T07:14:04.398Z,98722.42
2019-02-27T07:16:30.981Z,98718.63
2019-02-27T07:18:57.724Z,98730.09
2019-02-27T07:21:24.365Z,98728.52
2019-02-27T07:23:51.223Z,98730.08
2019-02-27T07:26:17.938Z,98734.31
2019-02-27T07:28:44.704Z,98729.52
2019-02-27T07:31:12.477Z,98733.44
2019-02-27T07:33:40.563Z,98729.16
2019-02-27T07:36:07.773Z,98733.08
2019-02-27T07:38:34.478Z,98738.22
2019-02-27T07:41:01.567Z,98728.23
2019-02-27T07:43:28.536Z,98726.75
2019-02-27T07:45:55.298Z,98729.31
2019-02-27T07:48:21.835Z,98729.75
2019-02-27T07:50:49.307Z,98724.42
2019-02-27T07:53:17.683Z,98721.42
2019-02-27T07:55:44.860Z,98725.05
2019-02-27T07:58:11.543Z,98723.10
2019-02-27T08:00:38.299Z,98726.67
2019-02-27T08:03:09.221Z,98723.85
2019-02-27T08:05:33.823Z,98714.75
2019-02-27T08:08:00.530Z,98719.92
2019-02-27T08:10:27.464Z,98720.03
2019-02-27T08:12:56.520Z,98718.03
2019-02-27T08:15:23.044Z,98712.64
2019-02-27T08:17:49.871Z,98710.60
2019-02-27T08:20:20.454Z,98701.62
2019-02-27T08:22:46.663Z,98709.77
2019-02-27T08:25:13.711Z,98705.48
2019-02-27T08:27:43.045Z,98709.19
2019-02-27T08:30:14.406Z,98706.34
2019-02-27T08:32:41.112Z,98701.95
2019-02-27T08:35:08.978Z,98702.85
2019-02-27T08:37:35.662Z,98703.05
2019-02-27T08:40:02.469Z,98700.98
2019-02-27T08:42:29.401Z,98697.80
2019-02-27T08:44:56.093Z,98685.88
2019-02-27T08:47:22.981Z,98689.73
2019-02-27T08:49:49.656Z,98681.31
2019-02-27T08:52:16.436Z,98675.20
2019-02-27T08:54:43.091Z,98668.43
2019-02-27T08:57:09.856Z,98671.59
2019-02-27T08:59:36.945Z,98665.31
2019-02-27T09:02:05.869Z,98661.75
2019-02-27T09:04:32.548Z,98661.63
2019-02-27T09:07:02.712Z,98654.78
2019-02-27T09:09:28.055Z,98657.95
2019-02-27T09:11:54.728Z,98655.04
2019-02-27T09:14:21.396Z,98651.80
2019-02-27T09:16:48.071Z,98647.30
2019-02-27T09:19:14.810Z,98654.59
2019-02-27T09:21:41.530Z,98648.00
2019-02-27T09:24:08.189Z,98647.42
2019-02-27T09:26:36.847Z,98644.92
2019-02-27T09:29:03.644Z,98636.48
2019-02-27T09:31:30.468Z,98635.91
2019-02-27T09:33:57.347Z,98634.30
2019-02-27T09:36:24.022Z,98635.58
2019-02-27T09:38:50.784Z,98632.31
2019-02-27T09:41:17.772Z,98626.78
2019-02-27T09:43:44.459Z,98625.52
2019-02-27T09:46:11.270Z,98624.13
2019-02-27T09:48:38.146Z,98617.61
2019-02-27T09:51:04.896Z,98612.33
2019-02-27T09:53:33.941Z,98611.20
2019-02-27T09:56:00.496Z,98601.33
2019-02-27T09:58:27.171Z,98597.53
2019-02-27T10:00:59.170Z,98599.33
2019-02-27T10:03:25.364Z,98592.88
2019-02-27T10:05:52.049Z,98584.95
2019-02-27T10:08:18.835Z,98587.23
2019-02-27T10:10:46.074Z,98588.23
2019-02-27T10:13:13.018Z,98584.97
2019-02-27T10:15:39.803Z,98576.11
2019-02-27T10:18:06.612Z,98581.11
2019-02-27T10:20:36.970Z,98573.95
2019-02-27T10:23:02.145Z,98576.09
2019-02-27T10:25:28.807Z,98568.84
2019-02-27T10:27:55.488Z,98572.38
2019-02-27T10:30:22.403Z,98563.28
2019-02-27T10:32:49.278Z,98559.09
2019-02-27T10:35:16.141Z,98551.13
2019-02-27T10:37:42.989Z,98554.48
2019-02-27T10:40:11.484Z,98545.50
2019-02-27T10:42:38.828Z,98546.92
2019-02-27T10:45:09.808Z,98539.27
2019-02-27T10:47:36.502Z,98537.11
2019-02-27T10:50:04.037Z,98530.81
2019-02-27T10:52:30.826Z,98526.77
2019-02-27T10:54:57.612Z,98527.91
2019-02-27T10:57:24.291Z,98527.53
2019-02-27T10:59:50.973Z,98534.38
2019-02-27T11:02:17.655Z,98530.25
2019-02-27T11:04:44.438Z,98532.96
2019-02-27T11:07:13.208Z,98525.25
2019-02-27T11:09:41.220Z,98514.80
2019-02-27T11:12:08.473Z,98523.20
2019-02-27T11:14:35.169Z,98518.53
2019-02-27T11:17:02.548Z,98518.16
2019-02-27T11:19:30.047Z,98509.24
2019-02-27T11:21:58.323Z,98504.04
2019-02-27T11:24:25.453Z,98502.51
2019-02-27T11:26:52.134Z,98491.60
2019-02-27T11:29:23.578Z,98484.58
2019-02-27T11:31:47.447Z,98481.17
2019-02-27T11:34:16.091Z,98479.76
2019-02-27T11:36:42.814Z,98478.63
2019-02-27T11:39:09.931Z,98470.82
2019-02-27T11:41:36.507Z,98470.95
2019-02-27T11:44:03.177Z,98462.72
2019-02-27T11:46:29.838Z,98465.73
2019-02-27T11:48:57.045Z,98463.53
2019-02-27T11:51:25.054Z,98454.14
2019-02-27T11:53:52.000Z,98451.55
2019-02-27T11:56:20.270Z,98441.11
2019-02-27T11:58:47.248Z,98434.78
2019-02-27T12:01:14.029Z,98428.12
2019-02-27T12:03:45.699Z,98422.09
2019-02-27T12:06:09.488Z,98409.66
2019-02-27T12:08:36.555Z,98414.67
2019-02-27T12:11:03.477Z,98409.97
2019-02-27T12:13:32.348Z,98413.62
2019-02-27T12:15:58.781Z,98404.47
2019-02-27T12:18:25.455Z,98403.58
2019-02-27T12:20:53.959Z,98396.42
2019-02-27T12:23:20.984Z,98393.59
2019-02-27T12:25:47.663Z,98387.47
2019-02-27T12:28:15.216Z,98383.62
2019-02-27T12:30:43.436Z,98377.51
2019-02-27T12:33:10.185Z,98386.97
2019-02-27T12:35:37.360Z,98378.09
2019-02-27T12:38:08.119Z,98381.06
2019-02-27T12:40:33.680Z,98382.88
2019-02-27T12:43:00.521Z,98376.72
2019-02-27T12:45:29.737Z,98377.54
2019-02-27T12:49:48.021Z,98364.51
2019-02-27T12:52:14.804Z,98362.14
2019-02-27T12:54:41.482Z,98355.94
2019-02-27T12:57:08.155Z,98355.06
2019-02-27T12:59:34.848Z,98343.23
2019-02-27T13:02:08.155Z,98343.31
2019-02-27T13:04:30.827Z,98341.50
2019-02-27T13:06:57.496Z,98337.19
2019-02-27T13:09:24.678Z,98331.41
2019-02-27T13:11:52.059Z,98337.10
2019-02-27T13:14:18.848Z,98325.08
2019-02-27T13:16:46.396Z,98316.45
2019-02-27T13:19:14.277Z,98322.08
2019-02-27T13:21:41.109Z,98312.51
2019-02-27T13:24:08.072Z,98305.33
2019-02-27T13:26:35.352Z,98302.14
2019-02-27T13:29:02.245Z,98298.40
2019-02-27T13:31:28.940Z,98298.27
2019-02-27T13:33:55.835Z,98296.38
2019-02-27T13:36:22.706Z,98290.46
2019-02-27T13:38:52.123Z,98284.20
2019-02-27T13:41:18.063Z,98287.72
2019-02-27T13:43:44.862Z,98280.59
2019-02-27T13:46:11.530Z,98278.26
2019-02-27T13:48:39.817Z,98276.46
2019-02-27T13:51:06.877Z,98263.84
2019-02-27T13:53:33.657Z,98268.27
2019-02-27T13:56:00.429Z,98265.89
2019-02-27T13:58:27.225Z,98266.27
2019-02-27T14:00:54.572Z,98252.38
2019-02-27T14:03:21.603Z,98253.59
2019-02-27T14:05:48.277Z,98249.45
2019-02-27T14:08:15.090Z,98250.45
2019-02-27T14:10:41.744Z,98247.02
2019-02-27T14:13:09.668Z,98241.53
2019-02-27T14:15:36.611Z,98244.71
2019-02-27T14:18:03.385Z,98240.89
2019-02-27T14:20:30.037Z,98235.90
2019-02-27T14:22:56.814Z,98234.85
2019-02-27T14:25:28.581Z,98230.97
2019-02-27T14:27:53.120Z,98229.73
2019-02-27T14:30:25.631Z,98229.20
2019-02-27T14:32:52.286Z,98224.97
2019-02-27T14:35:19.070Z,98223.48
2019-02-27T14:37:49.679Z,98222.23
2019-02-27T14:40:15.701Z,98219.66
2019-02-27T14:42:42.377Z,98219.05
2019-02-27T14:45:11.983Z,98216.61
2019-02-27T14:47:38.742Z,98213.44
2019-02-27T14:50:05.985Z,98209.46
2019-02-27T14:52:32.644Z,98209.77
2019-02-27T14:54:59.984Z,98211.03
2019-02-27T14:57:28.261Z,98208.28
2019-02-27T14:59:54.963Z,98209.48
2019-02-27T15:02:22.921Z,98205.78
2019-02-27T15:04:49.588Z,98200.66
2019-02-27T15:07:16.154Z,98197.68
2019-02-27T15:09:47.804Z,98195.53
2019-02-27T15:12:11.529Z,98181.38
2019-02-27T15:14:38.302Z,98184.48
2019-02-27T15:17:05.163Z,98179.85
2019-02-27T15:19:31.957Z,98177.33
2019-02-27T15:21:58.798Z,98168.84
2019-02-27T15:24:25.611Z,98161.78
2019-02-27T15:26:52.242Z,98159.95
2019-02-27T15:29:18.920Z,98161.38
2019-02-27T15:31:45.742Z,98160.42
2019-02-27T15:34:12.893Z,98159.80
2019-02-27T15:36:39.602Z,98157.02
2019-02-27T15:39:06.702Z,98153.20
2019-02-27T15:41:35.415Z,98147.48
2019-02-27T15:44:02.091Z,98141.00
2019-02-27T15:46:28.903Z,98137.97
2019-02-27T15:48:55.731Z,98133.98
2019-02-27T15:51:22.546Z,98129.83
2019-02-27T15:53:50.137Z,98124.29
2019-02-27T15:56:17.729Z,98124.95
2019-02-27T15:58:44.418Z,98122.93
2019-02-27T16:01:11.283Z,98118.13
2019-02-27T16:03:38.012Z,98118.08
2019-02-27T16:06:05.588Z,98118.19
2019-02-27T16:08:33.256Z,98121.42
2019-02-27T16:11:00.024Z,98111.66
2019-02-27T16:13:26.837Z,98119.73
2019-02-27T16:15:53.578Z,98113.84
2019-02-27T16:18:20.233Z,98112.27
2019-02-27T16:20:49.882Z,98112.74
2019-02-27T16:23:15.580Z,98119.11
2019-02-27T16:25:42.371Z,98109.16
2019-02-27T16:28:12.090Z,98109.64
2019-02-27T16:30:37.746Z,98120.46
2019-02-27T16:33:04.439Z,98113.77
2019-02-27T16:35:31.148Z,98113.64
2019-02-27T16:37:58.067Z,98109.91
2019-02-27T16:40:25.098Z,98107.06
2019-02-27T16:42:51.931Z,98101.97
2019-02-27T16:45:20.924Z,98099.36
2019-02-27T16:47:47.830Z,98094.57
2019-02-27T16:50:16.603Z,98089.75
2019-02-27T16:52:43.388Z,98090.39
2019-02-27T16:55:13.289Z,98089.08
2019-02-27T16:57:40.130Z,98092.72
2019-02-27T17:00:07.903Z,98088.93
2019-02-27T17:02:35.511Z,98083.02
2019-02-27T17:05:05.784Z,98085.25
2019-02-27T17:07:32.315Z,98083.64
2019-02-27T17:09:59.347Z,98088.58
2019-02-27T17:12:26.200Z,98081.53
2019-02-27T17:14:55.446Z,98078.27
2019-02-27T17:17:21.598Z,98080.19
2019-02-27T17:19:48.316Z,98078.27
2019-02-27T17:22:15.036Z,98086.11
2019-02-27T17:24:41.747Z,98085.30
2019-02-27T17:27:12.598Z,98087.19
2019-02-27T17:29:37.257Z,98086.63
2019-02-27T17:32:04.102Z,98090.14
2019-02-27T17:34:30.801Z,98084.98
2019-02-27T17:36:57.732Z,98086.05
2019-02-27T17:39:28.984Z,98084.12
2019-02-27T17:41:54.298Z,98087.63
2019-02-27T17:44:20.985Z,98089.79
2019-02-27T17:46:48.109Z,98090.60
2019-02-27T17:49:14.721Z,98084.59
2019-02-27T17:51:42.043Z,98091.59
2019-02-27T17:54:09.041Z,98088.56
2019-02-27T17:56:36.854Z,98088.77
2019-02-27T17:59:05.328Z,98092.72
2019-02-27T18:01:32.479Z,98095.35
2019-02-27T18:03:59.244Z,98092.00
2019-02-27T18:06:25.999Z,98093.01
2019-02-27T18:08:52.683Z,98096.19
2019-02-27T18:11:19.398Z,98095.58
2019-02-27T18:13:47.717Z,98091.45
2019-02-27T18:16:14.752Z,98094.93
2019-02-27T18:18:43.995Z,98092.14
2019-02-27T18:21:10.326Z,98091.53
2019-02-27T18:23:37.185Z,98086.09
2019-02-27T18:26:04.965Z,98085.50
2019-02-27T18:28:32.941Z,98080.02
2019-02-27T18:31:00.587Z,98079.16
2019-02-27T18:33:27.195Z,98080.73
2019-02-27T18:35:54.627Z,98076.08
2019-02-27T18:38:21.578Z,98070.57
2019-02-27T18:40:48.530Z,98064.84
2019-02-27T18:43:16.290Z,98055.31
2019-02-27T18:45:43.454Z,98056.31
2019-02-27T18:48:10.797Z,98052.03
2019-02-27T18:50:37.719Z,98042.55
2019-02-27T18:53:07.518Z,98044.13
2019-02-27T18:55:34.420Z,98038.69
2019-02-27T18:58:02.281Z,98038.06
2019-02-27T19:00:29.577Z,98041.24
2019-02-27T19:02:56.564Z,98046.84
2019-02-27T19:05:23.417Z,98052.44
2019-02-27T19:07:53.648Z,98048.75
2019-02-27T19:10:19.039Z,98052.44
2019-02-27T19:12:46.860Z,98046.07
2019-02-27T19:15:15.731Z,98038.95
2019-02-27T19:17:42.712Z,98035.28
2019-02-27T19:20:11.026Z,98032.33
2019-02-27T19:22:37.832Z,98031.72
2019-02-27T19:25:07.180Z,98034.38
2019-02-27T19:27:34.074Z,98035.63
2019-02-27T19:30:06.228Z,98024.98
2019-02-27T19:32:29.642Z,98027.06
2019-02-27T19:34:56.321Z,98023.17
2019-02-27T19:37:24.368Z,98018.22
2019-02-27T19:39:53.346Z,98020.20
2019-02-27T19:42:19.809Z,98025.81
2019-02-27T19:44:46.652Z,98026.46
2019-02-27T19:47:13.391Z,98030.13
2019-02-27T19:49:40.051Z,98027.05
2019-02-27T19:52:07.068Z,98032.74
2019-02-27T19:54:33.903Z,98030.70
2019-02-27T19:57:00.731Z,98033.02
2019-02-27T19:59:30.641Z,98031.81
2019-02-27T20:01:57.320Z,98033.84
2019-02-27T20:04:24.169Z,98037.25
2019-02-27T20:06:53.886Z,98036.36
2019-02-27T20:09:22.364Z,98034.09
2019-02-27T20:11:49.279Z,98032.88
2019-02-27T20:14:15.949Z,98030.66
2019-02-27T20:16:42.859Z,98024.27
2019-02-27T20:19:09.651Z,98026.67
2019-02-27T20:21:36.383Z,98021.70
2019-02-27T20:24:03.200Z,98019.19
2019-02-27T20:26:30.029Z,98023.36
2019-02-27T20:28:56.837Z,98016.78
2019-02-27T20:31:23.516Z,98012.09
2019-02-27T20:33:50.287Z,98010.64
2019-02-27T20:36:17.167Z,98014.04
2019-02-27T20:38:47.500Z,98009.54
2019-02-27T20:41:13.333Z,98003.54
2019-02-27T20:43:40.221Z,97995.11
2019-02-27T20:46:07.015Z,97991.00
2019-02-27T20:48:36.012Z,97988.25
2019-02-27T20:51:06.024Z,97987.91
2019-02-27T20:53:32.142Z,97992.12
2019-02-27T20:55:59.094Z,98004.71
2019-02-27T20:58:25.784Z,97997.89
2019-02-27T21:00:52.770Z,97994.92
2019-02-27T21:03:20.600Z,97986.55
2019-02-27T21:05:48.592Z,97997.56
2019-02-27T21:08:15.420Z,97983.45
2019-02-27T21:10:42.206Z,97983.97
2019-02-27T21:13:09.070Z,97971.03
2019-02-27T21:15:38.965Z,97975.84
2019-02-27T21:18:05.751Z,97969.73
2019-02-27T21:20:33.640Z,97965.98
2019-02-27T21:23:06.908Z,97964.22
2019-02-27T21:25:33.910Z,97962.99
2019-02-27T21:28:00.748Z,97953.06
2019-02-27T21:30:27.787Z,97951.84
2019-02-27T21:32:54.566Z,97943.67
2019-02-27T21:35:21.471Z,97943.55
2019-02-27T21:37:48.455Z,97942.61
2019-02-27T21:40:15.316Z,97945.41
2019-02-27T21:42:42.326Z,97937.80
2019-02-27T21:45:11.431Z,97939.88
2019-02-27T21:47:38.241Z,97941.56
2019-02-27T21:50:06.975Z,97948.45
2019-02-27T21:52:35.105Z,97944.29
2019-02-27T21:55:02.919Z,97939.83
2019-02-27T21:57:30.813Z,97947.34
2019-02-27T21:59:57.602Z,97936.16
2019-02-27T22:02:27.246Z,97941.17
2019-02-27T22:04:53.422Z,97936.48
2019-02-27T22:07:20.370Z,97926.71
2019-02-27T22:09:48.063Z,97938.98
2019-02-27T22:12:14.893Z,97934.87
2019-02-27T22:14:41.755Z,97933.89
2019-02-27T22:17:08.686Z,97927.92
2019-02-27T22:19:35.579Z,97930.02
2019-02-27T22:22:05.237Z,97923.45
2019-02-27T22:24:32.117Z,97921.22
2019-02-27T22:26:59.466Z,97917.94
2019-02-27T22:29:27.918Z,97918.06
2019-02-27T22:31:54.898Z,97915.83
2019-02-27T22:34:21.755Z,97905.54
2019-02-27T22:36:50.803Z,97900.84
2019-02-27T22:39:17.499Z,97908.55
2019-02-27T22:41:45.400Z,97901.91
2019-02-27T22:44:13.849Z,97900.23
2019-02-27T22:46:40.967Z,97893.89
2019-02-27T22:49:08.796Z,97887.03
2019-02-27T22:51:35.552Z,97883.46
2019-02-27T22:54:02.884Z,97881.45
2019-02-27T22:56:29.764Z,97888.55
2019-02-27T22:58:59.376Z,97888.36
2019-02-27T23:01:34.147Z,97889.55
2019-02-27T23:04:05.251Z,97888.59
2019-02-27T23:06:32.164Z,97886.42
2019-02-27T23:08:58.975Z,97887.50
2019-02-27T23:11:25.846Z,97888.77
2019-02-27T23:13:52.509Z,97882.73
2019-02-27T23:16:19.720Z,97893.69
2019-02-27T23:18:46.585Z,97889.59
2019-02-27T23:21:13.291Z,97894.36
2019-02-27T23:23:39.941Z,97887.19
2019-02-27T23:26:06.725Z,97886.30
2019-02-27T23:28:34.714Z,97890.62
2019-02-27T23:31:02.242Z,97880.41
2019-02-27T23:33:29.247Z,97887.42
2019-02-27T23:35:56.071Z,97878.25
2019-02-27T23:38:22.755Z,97867.81
2019-02-27T23:40:50.146Z,97869.75
2019-02-27T23:43:16.938Z,97861.55
2019-02-27T23:45:44.493Z,97862.70
2019-02-27T23:48:11.846Z,97858.16
2019-02-27T23:50:38.522Z,97855.02
2019-02-27T23:53:05.238Z,97854.72
2019-02-27T23:55:32.031Z,97850.84
2019-02-27T23:57:58.688Z,97851.36
